WJA738 CYZF-CYYC
Flight info
| Callsign | WJA738 |
|---|---|
| Flight time | 1h 37m |
| Altitude | 35000 |
| Route | ZF DCT GOREK DCT NUBEG DCT OLIMI/N0422F340 Q814 ADVOX ADVOX9 |
| Aircraft | B738/M-SDE2E3FGHIRWXY/LB1 |
Departure
| Time | 2026-05-04 20:30 |
|---|---|
| Airport | Yellowknife International Airport (CYZF) |
Arrival
| Time | 2026-05-04 22:07 |
|---|---|
| Airport | Calgary International Airport (CYYC) |
| Time | Latitude | Longitude | Altitude | Speed | Heading |
|---|---|---|---|---|---|
| 2026-05-04 20:13 | 62.47093 | -114.43906 | 677 ft | 0 kts | 85° |
| 2026-05-04 20:14 | 62.47164 | -114.43894 | 680 ft | 0 kts | 85° |
| 2026-05-04 20:15 | 62.47165 | -114.43883 | 680 ft | 0 kts | 86° |
| 2026-05-04 20:15 | 62.47165 | -114.43894 | 676 ft | 0 kts | 86° |
| 2026-05-04 20:22 | 62.47164 | -114.43913 | 676 ft | 2 kts | 86° |
| 2026-05-04 20:23 | 62.47164 | -114.43933 | 676 ft | 2 kts | 85° |
| 2026-05-04 20:23 | 62.47158 | -114.43963 | 677 ft | 2 kts | 51° |
| 2026-05-04 20:23 | 62.47147 | -114.43984 | 677 ft | 2 kts | 24° |
| 2026-05-04 20:23 | 62.47133 | -114.43991 | 677 ft | 0 kts | 360° |
| 2026-05-04 20:24 | 62.47127 | -114.43990 | 677 ft | 1 kts | 355° |
| 2026-05-04 20:24 | 62.47126 | -114.43989 | 677 ft | 0 kts | 355° |
| 2026-05-04 20:24 | 62.47126 | -114.43990 | 677 ft | 0 kts | 355° |
| 2026-05-04 20:25 | 62.47126 | -114.43989 | 677 ft | 0 kts | 355° |
| 2026-05-04 20:26 | 62.47126 | -114.43990 | 677 ft | 0 kts | 355° |
| 2026-05-04 20:26 | 62.47161 | -114.43996 | 677 ft | 7 kts | 355° |
| 2026-05-04 20:26 | 62.47229 | -114.44008 | 676 ft | 13 kts | 355° |
| 2026-05-04 20:27 | 62.47324 | -114.44097 | 676 ft | 14 kts | 277° |
| 2026-05-04 20:27 | 62.47325 | -114.44260 | 676 ft | 10 kts | 265° |
| 2026-05-04 20:27 | 62.47285 | -114.44392 | 676 ft | 11 kts | 180° |
| 2026-05-04 20:27 | 62.47276 | -114.44392 | 676 ft | 0 kts | 176° |
| 2026-05-04 20:29 | 62.47275 | -114.44391 | 676 ft | 0 kts | 176° |
| 2026-05-04 20:29 | 62.47217 | -114.44381 | 677 ft | 33 kts | 176° |
| 2026-05-04 20:29 | 62.46746 | -114.44306 | 679 ft | 100 kts | 176° |
| 2026-05-04 20:29 | 62.45852 | -114.44160 | 674 ft | 156 kts | 175° |
| 2026-05-04 20:30 | 62.44749 | -114.43977 | 1208 ft | 160 kts | 175° |
| 2026-05-04 20:30 | 62.43593 | -114.43766 | 1673 ft | 175 kts | 175° |
| 2026-05-04 20:30 | 62.42356 | -114.43539 | 2124 ft | 186 kts | 175° |
| 2026-05-04 20:30 | 62.41024 | -114.43301 | 2476 ft | 202 kts | 175° |
| 2026-05-04 20:31 | 62.39570 | -114.43042 | 2859 ft | 219 kts | 175° |
| 2026-05-04 20:31 | 62.37981 | -114.42758 | 3255 ft | 236 kts | 175° |
| 2026-05-04 20:31 | 62.36305 | -114.42460 | 3699 ft | 252 kts | 175° |
| 2026-05-04 20:31 | 62.34530 | -114.42144 | 4146 ft | 266 kts | 175° |
| 2026-05-04 20:32 | 62.32652 | -114.41810 | 4809 ft | 272 kts | 176° |
| 2026-05-04 20:32 | 62.30778 | -114.41476 | 5494 ft | 277 kts | 176° |
| 2026-05-04 20:32 | 62.28835 | -114.41130 | 6148 ft | 283 kts | 176° |
| 2026-05-04 20:32 | 62.26876 | -114.40781 | 6792 ft | 288 kts | 176° |
| 2026-05-04 20:33 | 62.24877 | -114.40425 | 7506 ft | 291 kts | 176° |
| 2026-05-04 20:33 | 62.22883 | -114.40050 | 8184 ft | 294 kts | 175° |
| 2026-05-04 20:33 | 62.20827 | -114.39599 | 8872 ft | 297 kts | 175° |
| 2026-05-04 20:33 | 62.18794 | -114.39143 | 9516 ft | 300 kts | 175° |
| 2026-05-04 20:34 | 62.16697 | -114.38683 | 10153 ft | 304 kts | 175° |
| 2026-05-04 20:34 | 62.14568 | -114.38222 | 10477 ft | 319 kts | 175° |
| 2026-05-04 20:34 | 62.12291 | -114.37733 | 10776 ft | 335 kts | 175° |
| 2026-05-04 20:34 | 62.09952 | -114.37232 | 11078 ft | 350 kts | 175° |
| 2026-05-04 20:35 | 62.07495 | -114.36707 | 11368 ft | 364 kts | 175° |
| 2026-05-04 20:35 | 62.04944 | -114.36163 | 11856 ft | 373 kts | 175° |
| 2026-05-04 20:35 | 62.02384 | -114.35616 | 12519 ft | 376 kts | 175° |
| 2026-05-04 20:35 | 61.99760 | -114.35059 | 13165 ft | 379 kts | 175° |
| 2026-05-04 20:36 | 61.97159 | -114.34506 | 13849 ft | 382 kts | 175° |
| 2026-05-04 20:36 | 61.94519 | -114.33946 | 14503 ft | 385 kts | 175° |
| 2026-05-04 20:36 | 61.91859 | -114.33384 | 15200 ft | 388 kts | 175° |
| 2026-05-04 20:36 | 61.89164 | -114.32815 | 15897 ft | 390 kts | 175° |
| 2026-05-04 20:37 | 61.86456 | -114.32243 | 16567 ft | 392 kts | 175° |
| 2026-05-04 20:37 | 61.83773 | -114.31679 | 17231 ft | 394 kts | 175° |
| 2026-05-04 20:37 | 61.81047 | -114.31106 | 17888 ft | 396 kts | 175° |
| 2026-05-04 20:37 | 61.78310 | -114.30532 | 18531 ft | 397 kts | 175° |
| 2026-05-04 20:38 | 61.75545 | -114.29953 | 19123 ft | 400 kts | 175° |
| 2026-05-04 20:38 | 61.72783 | -114.29376 | 19735 ft | 402 kts | 174° |
| 2026-05-04 20:38 | 61.70019 | -114.28800 | 20229 ft | 406 kts | 174° |
| 2026-05-04 20:38 | 61.67206 | -114.28214 | 20913 ft | 405 kts | 174° |
| 2026-05-04 20:39 | 61.64405 | -114.27632 | 21365 ft | 410 kts | 174° |
| 2026-05-04 20:39 | 61.61560 | -114.27042 | 21853 ft | 414 kts | 174° |
| 2026-05-04 20:39 | 61.58707 | -114.26451 | 22389 ft | 416 kts | 174° |
| 2026-05-04 20:39 | 61.55873 | -114.25866 | 22967 ft | 416 kts | 174° |
| 2026-05-04 20:40 | 61.52963 | -114.25266 | 23338 ft | 421 kts | 174° |
| 2026-05-04 20:40 | 61.50081 | -114.24672 | 23874 ft | 422 kts | 174° |
| 2026-05-04 20:40 | 61.47142 | -114.24068 | 24368 ft | 423 kts | 173° |
| 2026-05-04 20:40 | 61.44238 | -114.23471 | 24671 ft | 429 kts | 174° |
| 2026-05-04 20:41 | 61.41246 | -114.22857 | 25014 ft | 433 kts | 174° |
| 2026-05-04 20:41 | 61.38196 | -114.22234 | 25361 ft | 437 kts | 175° |
| 2026-05-04 20:41 | 61.35142 | -114.21612 | 25695 ft | 441 kts | 175° |
| 2026-05-04 20:41 | 61.32055 | -114.20984 | 26000 ft | 446 kts | 175° |
| 2026-05-04 20:42 | 61.28929 | -114.20351 | 26367 ft | 449 kts | 175° |
| 2026-05-04 20:42 | 61.25828 | -114.19723 | 26703 ft | 452 kts | 175° |
| 2026-05-04 20:42 | 61.22681 | -114.19087 | 27002 ft | 457 kts | 175° |
| 2026-05-04 20:42 | 61.19505 | -114.18445 | 27297 ft | 461 kts | 175° |
| 2026-05-04 20:43 | 61.16317 | -114.17803 | 27604 ft | 464 kts | 175° |
| 2026-05-04 20:43 | 61.13039 | -114.17144 | 28030 ft | 464 kts | 175° |
| 2026-05-04 20:43 | 61.10212 | -114.16576 | 28304 ft | 467 kts | 175° |
| 2026-05-04 20:43 | 61.06998 | -114.15932 | 28750 ft | 466 kts | 175° |
| 2026-05-04 20:44 | 61.03798 | -114.15293 | 29087 ft | 467 kts | 175° |
| 2026-05-04 20:44 | 61.00563 | -114.14648 | 29432 ft | 469 kts | 175° |
| 2026-05-04 20:44 | 60.97301 | -114.13998 | 29728 ft | 471 kts | 175° |
| 2026-05-04 20:44 | 60.94081 | -114.13360 | 30004 ft | 473 kts | 175° |
| 2026-05-04 20:45 | 60.90808 | -114.12711 | 30295 ft | 475 kts | 175° |
| 2026-05-04 20:45 | 60.87495 | -114.12056 | 30603 ft | 475 kts | 175° |
| 2026-05-04 20:45 | 60.84206 | -114.11406 | 30801 ft | 478 kts | 176° |
| 2026-05-04 20:45 | 60.80932 | -114.10761 | 31033 ft | 479 kts | 176° |
| 2026-05-04 20:46 | 60.77651 | -114.10116 | 31303 ft | 479 kts | 176° |
| 2026-05-04 20:46 | 60.74361 | -114.09470 | 31533 ft | 480 kts | 176° |
| 2026-05-04 20:46 | 60.71027 | -114.08961 | 31717 ft | 482 kts | 180° |
| 2026-05-04 20:46 | 60.67737 | -114.08812 | 31989 ft | 480 kts | 181° |
| 2026-05-04 20:47 | 60.64411 | -114.08802 | 32216 ft | 481 kts | 182° |
| 2026-05-04 20:47 | 60.64076 | -114.08804 | 32240 ft | 481 kts | 182° |
| 2026-05-04 20:47 | 60.59401 | -114.08823 | 32565 ft | 482 kts | 182° |
| 2026-05-04 20:48 | 60.56057 | -114.08824 | 32821 ft | 482 kts | 182° |
| 2026-05-04 20:48 | 60.52695 | -114.08805 | 33058 ft | 483 kts | 182° |
| 2026-05-04 20:48 | 60.49372 | -114.08770 | 33250 ft | 484 kts | 182° |
| 2026-05-04 20:48 | 60.46012 | -114.08724 | 33482 ft | 484 kts | 182° |
| 2026-05-04 20:49 | 60.42664 | -114.08672 | 33700 ft | 485 kts | 182° |
| 2026-05-04 20:49 | 60.39295 | -114.08614 | 33912 ft | 486 kts | 182° |
| 2026-05-04 20:49 | 60.35963 | -114.08555 | 34218 ft | 484 kts | 182° |
| 2026-05-04 20:49 | 60.32602 | -114.08492 | 34467 ft | 484 kts | 182° |
| 2026-05-04 20:50 | 60.29258 | -114.08431 | 34689 ft | 485 kts | 182° |
| 2026-05-04 20:50 | 60.25892 | -114.08366 | 34997 ft | 482 kts | 182° |
| 2026-05-04 20:50 | 60.22571 | -114.08302 | 35188 ft | 483 kts | 182° |
| 2026-05-04 20:50 | 60.19193 | -114.08239 | 35212 ft | 485 kts | 181° |
| 2026-05-04 20:51 | 60.12485 | -114.08109 | 35223 ft | 484 kts | 182° |
| 2026-05-04 20:51 | 60.05825 | -114.07978 | 35217 ft | 482 kts | 182° |
| 2026-05-04 20:52 | 59.99139 | -114.07849 | 35216 ft | 483 kts | 182° |
| 2026-05-04 20:52 | 59.92398 | -114.07721 | 35211 ft | 485 kts | 181° |
| 2026-05-04 20:53 | 59.85712 | -114.07591 | 35213 ft | 483 kts | 182° |
| 2026-05-04 20:53 | 59.79011 | -114.07463 | 35209 ft | 485 kts | 181° |
| 2026-05-04 20:54 | 59.72329 | -114.07333 | 35208 ft | 484 kts | 181° |
| 2026-05-04 20:54 | 59.65603 | -114.07207 | 35203 ft | 485 kts | 182° |
| 2026-05-04 20:55 | 59.58860 | -114.07081 | 35201 ft | 486 kts | 182° |
| 2026-05-04 20:55 | 59.52707 | -114.06966 | 35198 ft | 486 kts | 182° |
| 2026-05-04 20:56 | 59.46247 | -114.06845 | 35192 ft | 487 kts | 181° |
| 2026-05-04 20:56 | 59.39519 | -114.06717 | 35180 ft | 487 kts | 182° |
| 2026-05-04 20:57 | 59.32754 | -114.06592 | 35167 ft | 488 kts | 182° |
| 2026-05-04 20:57 | 59.25977 | -114.06466 | 35155 ft | 489 kts | 181° |
| 2026-05-04 20:58 | 59.19207 | -114.06342 | 35147 ft | 489 kts | 181° |
| 2026-05-04 20:58 | 59.12400 | -114.06216 | 35151 ft | 490 kts | 181° |
| 2026-05-04 20:59 | 59.05559 | -114.06092 | 35149 ft | 491 kts | 182° |
| 2026-05-04 20:59 | 58.98725 | -114.05968 | 35148 ft | 490 kts | 182° |
| 2026-05-04 21:00 | 58.91940 | -114.05842 | 35160 ft | 492 kts | 182° |
| 2026-05-04 21:00 | 58.85138 | -114.05720 | 35168 ft | 490 kts | 182° |
| 2026-05-04 21:01 | 58.78321 | -114.05599 | 35172 ft | 491 kts | 182° |
| 2026-05-04 21:01 | 58.71520 | -114.05477 | 35184 ft | 492 kts | 182° |
| 2026-05-04 21:02 | 58.64675 | -114.05357 | 35187 ft | 493 kts | 182° |
| 2026-05-04 21:02 | 58.57848 | -114.05231 | 35193 ft | 491 kts | 182° |
| 2026-05-04 21:03 | 58.50986 | -114.05108 | 35199 ft | 493 kts | 182° |
| 2026-05-04 21:03 | 58.44176 | -114.04989 | 35204 ft | 494 kts | 182° |
| 2026-05-04 21:04 | 58.37299 | -114.04866 | 35196 ft | 494 kts | 182° |
| 2026-05-04 21:04 | 58.30439 | -114.04748 | 35205 ft | 494 kts | 182° |
| 2026-05-04 21:05 | 58.23565 | -114.04628 | 35200 ft | 495 kts | 182° |
| 2026-05-04 21:05 | 58.16722 | -114.04508 | 35197 ft | 495 kts | 182° |
| 2026-05-04 21:06 | 58.09805 | -114.04388 | 35198 ft | 498 kts | 182° |
| 2026-05-04 21:06 | 58.02929 | -114.04266 | 35191 ft | 496 kts | 182° |
| 2026-05-04 21:07 | 57.96029 | -114.04150 | 35192 ft | 498 kts | 182° |
| 2026-05-04 21:07 | 57.89085 | -114.04034 | 35189 ft | 498 kts | 182° |
| 2026-05-04 21:08 | 57.82227 | -114.03915 | 35178 ft | 497 kts | 182° |
| 2026-05-04 21:08 | 57.75294 | -114.03796 | 35170 ft | 499 kts | 182° |
| 2026-05-04 21:09 | 57.68396 | -114.03673 | 35173 ft | 497 kts | 182° |
| 2026-05-04 21:09 | 57.61422 | -114.03556 | 35156 ft | 501 kts | 182° |
| 2026-05-04 21:10 | 57.54506 | -114.03442 | 35158 ft | 502 kts | 182° |
| 2026-05-04 21:10 | 57.47513 | -114.03328 | 35149 ft | 500 kts | 182° |
| 2026-05-04 21:11 | 57.40605 | -114.03207 | 35146 ft | 501 kts | 182° |
| 2026-05-04 21:11 | 57.33618 | -114.03094 | 35140 ft | 502 kts | 182° |
| 2026-05-04 21:12 | 57.26619 | -114.02980 | 35132 ft | 504 kts | 182° |
| 2026-05-04 21:12 | 57.19580 | -114.02860 | 35135 ft | 503 kts | 182° |
| 2026-05-04 21:13 | 57.12594 | -114.02745 | 35144 ft | 502 kts | 182° |
| 2026-05-04 21:13 | 57.05568 | -114.02633 | 35160 ft | 504 kts | 183° |
| 2026-05-04 21:14 | 56.98571 | -114.02519 | 35153 ft | 505 kts | 182° |
| 2026-05-04 21:14 | 56.91531 | -114.02406 | 35163 ft | 503 kts | 182° |
| 2026-05-04 21:15 | 56.84539 | -114.02294 | 35166 ft | 507 kts | 182° |
| 2026-05-04 21:15 | 56.77521 | -114.02180 | 35150 ft | 505 kts | 182° |
| 2026-05-04 21:16 | 56.70466 | -114.02071 | 35146 ft | 507 kts | 182° |
| 2026-05-04 21:16 | 56.63423 | -114.01962 | 35152 ft | 506 kts | 182° |
| 2026-05-04 21:17 | 56.56409 | -114.01839 | 35142 ft | 507 kts | 182° |
| 2026-05-04 21:17 | 56.49323 | -114.01730 | 35132 ft | 510 kts | 182° |
| 2026-05-04 21:18 | 56.42213 | -114.01610 | 35139 ft | 509 kts | 182° |
| 2026-05-04 21:18 | 56.35080 | -114.01492 | 35132 ft | 511 kts | 182° |
| 2026-05-04 21:19 | 56.27976 | -114.01384 | 35135 ft | 509 kts | 182° |
| 2026-05-04 21:19 | 56.20850 | -114.01276 | 35135 ft | 513 kts | 182° |
| 2026-05-04 21:20 | 56.13724 | -114.01169 | 35133 ft | 513 kts | 182° |
| 2026-05-04 21:20 | 56.06584 | -114.01057 | 35141 ft | 511 kts | 182° |
| 2026-05-04 21:21 | 55.99446 | -114.00949 | 35134 ft | 513 kts | 182° |
| 2026-05-04 21:21 | 55.92258 | -114.00853 | 35131 ft | 514 kts | 182° |
| 2026-05-04 21:22 | 55.85160 | -114.00738 | 35119 ft | 511 kts | 182° |
| 2026-05-04 21:22 | 55.78066 | -114.00610 | 35114 ft | 514 kts | 182° |
| 2026-05-04 21:23 | 55.70942 | -114.00498 | 35119 ft | 513 kts | 182° |
| 2026-05-04 21:23 | 55.63775 | -114.00399 | 35120 ft | 516 kts | 182° |
| 2026-05-04 21:24 | 55.56652 | -114.00296 | 35107 ft | 514 kts | 183° |
| 2026-05-04 21:24 | 55.49479 | -114.00178 | 35101 ft | 517 kts | 182° |
| 2026-05-04 21:25 | 55.42308 | -114.00079 | 35092 ft | 516 kts | 182° |
| 2026-05-04 21:25 | 55.35118 | -113.99979 | 35100 ft | 515 kts | 182° |
| 2026-05-04 21:26 | 55.27977 | -113.99871 | 35108 ft | 516 kts | 182° |
| 2026-05-04 21:26 | 55.20797 | -113.99757 | 35109 ft | 517 kts | 182° |
| 2026-05-04 21:27 | 55.13535 | -113.99639 | 35103 ft | 518 kts | 182° |
| 2026-05-04 21:27 | 55.06332 | -113.99532 | 35100 ft | 518 kts | 182° |
| 2026-05-04 21:28 | 54.99102 | -113.99431 | 35095 ft | 516 kts | 182° |
| 2026-05-04 21:28 | 54.91900 | -113.99337 | 35099 ft | 517 kts | 182° |
| 2026-05-04 21:29 | 54.84735 | -113.99229 | 35095 ft | 521 kts | 182° |
| 2026-05-04 21:29 | 54.77515 | -113.99126 | 35095 ft | 517 kts | 182° |
| 2026-05-04 21:30 | 54.70320 | -113.99021 | 35091 ft | 516 kts | 182° |
| 2026-05-04 21:30 | 54.63151 | -113.98922 | 35092 ft | 519 kts | 182° |
| 2026-05-04 21:31 | 54.52281 | -113.98769 | 35087 ft | 518 kts | 182° |
| 2026-05-04 21:32 | 54.44999 | -113.98665 | 35095 ft | 521 kts | 182° |
| 2026-05-04 21:32 | 54.37770 | -113.98554 | 35090 ft | 518 kts | 182° |
| 2026-05-04 21:33 | 54.30542 | -113.98449 | 35096 ft | 520 kts | 182° |
| 2026-05-04 21:33 | 54.23298 | -113.98592 | 35091 ft | 518 kts | 185° |
| 2026-05-04 21:34 | 54.16078 | -113.99297 | 35081 ft | 518 kts | 187° |
| 2026-05-04 21:34 | 54.08876 | -114.00034 | 35084 ft | 518 kts | 186° |
| 2026-05-04 21:35 | 54.01657 | -114.00706 | 35078 ft | 520 kts | 186° |
| 2026-05-04 21:35 | 53.94444 | -114.01360 | 35082 ft | 520 kts | 186° |
| 2026-05-04 21:36 | 53.87209 | -114.01995 | 35077 ft | 521 kts | 186° |
| 2026-05-04 21:36 | 53.79950 | -114.02631 | 35083 ft | 521 kts | 187° |
| 2026-05-04 21:37 | 53.72798 | -114.03245 | 35094 ft | 520 kts | 187° |
| 2026-05-04 21:37 | 53.65519 | -114.03869 | 35099 ft | 521 kts | 186° |
| 2026-05-04 21:38 | 53.58225 | -114.04494 | 35091 ft | 522 kts | 187° |
| 2026-05-04 21:38 | 53.50990 | -114.05100 | 35088 ft | 520 kts | 187° |
| 2026-05-04 21:39 | 53.43697 | -114.05720 | 35086 ft | 523 kts | 186° |
| 2026-05-04 21:39 | 53.36470 | -114.06341 | 35085 ft | 521 kts | 187° |
| 2026-05-04 21:40 | 53.29188 | -114.06953 | 35087 ft | 522 kts | 187° |
| 2026-05-04 21:40 | 53.24392 | -114.07363 | 35084 ft | 525 kts | 187° |
| 2026-05-04 21:41 | 53.17096 | -114.07981 | 35085 ft | 525 kts | 187° |
| 2026-05-04 21:41 | 53.09773 | -114.08586 | 35079 ft | 526 kts | 186° |
| 2026-05-04 21:42 | 53.02511 | -114.09187 | 35078 ft | 527 kts | 187° |
| 2026-05-04 21:42 | 52.95216 | -114.09787 | 35072 ft | 524 kts | 187° |
| 2026-05-04 21:43 | 52.87953 | -114.10425 | 35075 ft | 523 kts | 189° |
| 2026-05-04 21:43 | 52.80794 | -114.11938 | 35073 ft | 517 kts | 198° |
| 2026-05-04 21:44 | 52.73942 | -114.15054 | 35072 ft | 513 kts | 205° |
| 2026-05-04 21:44 | 52.67379 | -114.18562 | 35072 ft | 511 kts | 206° |
| 2026-05-04 21:45 | 52.60659 | -114.22222 | 35072 ft | 511 kts | 206° |
| 2026-05-04 21:45 | 52.57314 | -114.24036 | 34934 ft | 506 kts | 206° |
| 2026-05-04 21:45 | 52.54022 | -114.25811 | 34597 ft | 501 kts | 206° |
| 2026-05-04 21:45 | 52.50769 | -114.27560 | 34135 ft | 499 kts | 206° |
| 2026-05-04 21:46 | 52.47476 | -114.29332 | 33592 ft | 499 kts | 206° |
| 2026-05-04 21:46 | 52.44188 | -114.31104 | 33034 ft | 499 kts | 206° |
| 2026-05-04 21:46 | 52.40940 | -114.32852 | 32483 ft | 498 kts | 207° |
| 2026-05-04 21:46 | 52.37690 | -114.34595 | 31927 ft | 496 kts | 206° |
| 2026-05-04 21:47 | 52.34441 | -114.36331 | 31376 ft | 494 kts | 206° |
| 2026-05-04 21:47 | 52.31195 | -114.38064 | 30824 ft | 492 kts | 207° |
| 2026-05-04 21:47 | 52.27967 | -114.39784 | 30245 ft | 489 kts | 206° |
| 2026-05-04 21:47 | 52.24743 | -114.41496 | 29678 ft | 486 kts | 206° |
| 2026-05-04 21:48 | 52.21597 | -114.43166 | 29136 ft | 482 kts | 206° |
| 2026-05-04 21:48 | 52.18405 | -114.44859 | 28587 ft | 478 kts | 206° |
| 2026-05-04 21:48 | 52.15293 | -114.46508 | 28051 ft | 474 kts | 206° |
| 2026-05-04 21:48 | 52.12172 | -114.48159 | 27514 ft | 470 kts | 206° |
| 2026-05-04 21:49 | 52.09078 | -114.49794 | 26979 ft | 467 kts | 206° |
| 2026-05-04 21:49 | 52.06030 | -114.51402 | 26443 ft | 463 kts | 206° |
| 2026-05-04 21:49 | 52.02999 | -114.53003 | 25910 ft | 460 kts | 206° |
| 2026-05-04 21:49 | 51.99955 | -114.54610 | 25378 ft | 457 kts | 206° |
| 2026-05-04 21:50 | 51.96959 | -114.56187 | 24853 ft | 453 kts | 205° |
| 2026-05-04 21:50 | 51.93982 | -114.57751 | 24335 ft | 449 kts | 206° |
| 2026-05-04 21:50 | 51.91008 | -114.59309 | 23816 ft | 446 kts | 206° |
| 2026-05-04 21:50 | 51.88075 | -114.60845 | 23309 ft | 441 kts | 206° |
| 2026-05-04 21:51 | 51.85213 | -114.62341 | 22811 ft | 437 kts | 205° |
| 2026-05-04 21:51 | 51.82343 | -114.63839 | 22303 ft | 433 kts | 205° |
| 2026-05-04 21:51 | 51.79471 | -114.65338 | 21788 ft | 429 kts | 204° |
| 2026-05-04 21:51 | 51.76656 | -114.66807 | 21273 ft | 426 kts | 204° |
| 2026-05-04 21:52 | 51.73825 | -114.68070 | 20787 ft | 426 kts | 198° |
| 2026-05-04 21:52 | 51.70922 | -114.68614 | 20301 ft | 430 kts | 183° |
| 2026-05-04 21:52 | 51.68004 | -114.67932 | 19805 ft | 431 kts | 165° |
| 2026-05-04 21:52 | 51.65223 | -114.66400 | 19316 ft | 428 kts | 158° |
| 2026-05-04 21:53 | 51.62561 | -114.64291 | 18808 ft | 424 kts | 147° |
| 2026-05-04 21:53 | 51.60249 | -114.61861 | 18348 ft | 420 kts | 142° |
| 2026-05-04 21:53 | 51.57897 | -114.59145 | 17863 ft | 416 kts | 142° |
| 2026-05-04 21:53 | 51.55730 | -114.56583 | 17412 ft | 413 kts | 141° |
| 2026-05-04 21:54 | 51.53437 | -114.53825 | 16937 ft | 410 kts | 141° |
| 2026-05-04 21:54 | 51.52186 | -114.52321 | 16650 ft | 408 kts | 141° |
| 2026-05-04 21:54 | 51.49356 | -114.48950 | 16053 ft | 403 kts | 142° |
| 2026-05-04 21:55 | 51.47150 | -114.46189 | 15585 ft | 398 kts | 137° |
| 2026-05-04 21:55 | 51.45164 | -114.43223 | 15130 ft | 394 kts | 133° |
| 2026-05-04 21:55 | 51.43232 | -114.40126 | 14578 ft | 393 kts | 133° |
| 2026-05-04 21:55 | 51.41309 | -114.37035 | 14081 ft | 390 kts | 134° |
| 2026-05-04 21:56 | 51.39440 | -114.34064 | 13623 ft | 385 kts | 135° |
| 2026-05-04 21:56 | 51.37528 | -114.31053 | 13170 ft | 380 kts | 134° |
| 2026-05-04 21:56 | 51.35698 | -114.28184 | 12734 ft | 376 kts | 135° |
| 2026-05-04 21:56 | 51.33890 | -114.25359 | 12274 ft | 372 kts | 135° |
| 2026-05-04 21:57 | 51.32037 | -114.22476 | 11807 ft | 366 kts | 135° |
| 2026-05-04 21:57 | 51.30239 | -114.19683 | 11424 ft | 361 kts | 134° |
| 2026-05-04 21:57 | 51.28502 | -114.16861 | 10976 ft | 356 kts | 128° |
| 2026-05-04 21:57 | 51.27076 | -114.13717 | 10555 ft | 349 kts | 120° |
| 2026-05-04 21:58 | 51.25819 | -114.10407 | 10119 ft | 344 kts | 117° |
| 2026-05-04 21:58 | 51.24620 | -114.07142 | 9777 ft | 337 kts | 117° |
| 2026-05-04 21:58 | 51.23450 | -114.03979 | 9433 ft | 332 kts | 117° |
| 2026-05-04 21:58 | 51.22268 | -114.00809 | 8997 ft | 329 kts | 117° |
| 2026-05-04 21:59 | 51.21112 | -113.97716 | 8602 ft | 322 kts | 117° |
| 2026-05-04 21:59 | 51.19982 | -113.94712 | 8264 ft | 312 kts | 117° |
| 2026-05-04 21:59 | 51.18900 | -113.91846 | 8105 ft | 295 kts | 117° |
| 2026-05-04 21:59 | 51.17867 | -113.89122 | 8039 ft | 277 kts | 117° |
| 2026-05-04 22:00 | 51.16909 | -113.86571 | 7970 ft | 262 kts | 116° |
| 2026-05-04 22:00 | 51.16067 | -113.84242 | 7971 ft | 249 kts | 114° |
| 2026-05-04 22:00 | 51.15859 | -113.83658 | 7984 ft | 249 kts | 115° |
| 2026-05-04 22:00 | 51.15009 | -113.81251 | 7972 ft | 253 kts | 114° |
| 2026-05-04 22:01 | 51.14129 | -113.78832 | 7972 ft | 254 kts | 115° |
| 2026-05-04 22:01 | 51.13223 | -113.76391 | 7972 ft | 253 kts | 115° |
| 2026-05-04 22:01 | 51.12307 | -113.73994 | 7961 ft | 254 kts | 121° |
| 2026-05-04 22:01 | 51.11076 | -113.71963 | 7955 ft | 260 kts | 146° |
| 2026-05-04 22:02 | 51.09368 | -113.71138 | 7943 ft | 261 kts | 182° |
| 2026-05-04 22:02 | 51.07630 | -113.71715 | 7695 ft | 254 kts | 207° |
| 2026-05-04 22:02 | 51.06068 | -113.73035 | 7388 ft | 251 kts | 215° |
| 2026-05-04 22:02 | 51.04708 | -113.74715 | 7112 ft | 243 kts | 234° |
| 2026-05-04 22:03 | 51.03973 | -113.76934 | 6903 ft | 222 kts | 266° |
| 2026-05-04 22:03 | 51.03949 | -113.79309 | 6583 ft | 211 kts | 288° |
| 2026-05-04 22:03 | 51.04520 | -113.81361 | 6238 ft | 202 kts | 309° |
| 2026-05-04 22:03 | 51.05216 | -113.83250 | 6044 ft | 197 kts | 304° |
| 2026-05-04 22:04 | 51.05880 | -113.85116 | 5779 ft | 195 kts | 307° |
| 2026-05-04 22:04 | 51.06559 | -113.86939 | 5528 ft | 185 kts | 305° |
| 2026-05-04 22:04 | 51.07194 | -113.88693 | 5269 ft | 181 kts | 306° |
| 2026-05-04 22:04 | 51.07812 | -113.90366 | 5035 ft | 168 kts | 308° |
| 2026-05-04 22:05 | 51.08373 | -113.91897 | 4820 ft | 154 kts | 307° |
| 2026-05-04 22:05 | 51.08890 | -113.93306 | 4624 ft | 144 kts | 308° |
| 2026-05-04 22:05 | 51.09393 | -113.94680 | 4429 ft | 146 kts | 306° |
| 2026-05-04 22:05 | 51.09903 | -113.96061 | 4240 ft | 145 kts | 308° |
| 2026-05-04 22:06 | 51.10398 | -113.97440 | 4039 ft | 144 kts | 307° |
| 2026-05-04 22:06 | 51.10918 | -113.98820 | 3855 ft | 146 kts | 306° |
| 2026-05-04 22:06 | 51.11420 | -114.00216 | 3663 ft | 147 kts | 307° |
| 2026-05-04 22:06 | 51.11911 | -114.01543 | 3564 ft | 130 kts | 302° |
| 2026-05-04 22:07 | 51.12245 | -114.02468 | 3564 ft | 67 kts | 301° |
| 2026-05-04 22:07 | 51.12406 | -114.02909 | 3564 ft | 31 kts | 301° |
| 2026-05-04 22:07 | 51.12558 | -114.03156 | 3564 ft | 31 kts | 327° |
| 2026-05-04 22:07 | 51.12698 | -114.03237 | 3564 ft | 14 kts | 22° |
| 2026-05-04 22:08 | 51.12714 | -114.03113 | 3564 ft | 12 kts | 120° |
| 2026-05-04 22:08 | 51.12672 | -114.02998 | 3564 ft | 12 kts | 120° |
| 2026-05-04 22:08 | 51.12607 | -114.02682 | 3564 ft | 16 kts | 91° |
| 2026-05-04 22:08 | 51.12603 | -114.01888 | 3564 ft | 20 kts | 90° |
| 2026-05-04 22:09 | 51.12601 | -114.01656 | 3564 ft | 25 kts | 89° |
| 2026-05-04 22:09 | 51.12666 | -114.01370 | 3564 ft | 28 kts | 38° |
| 2026-05-04 22:09 | 51.12806 | -114.01171 | 3564 ft | 23 kts | 68° |
| 2026-05-04 22:09 | 51.12750 | -114.00942 | 3564 ft | 23 kts | 103° |
| 2026-05-04 22:10 | 51.12747 | -114.00701 | 3564 ft | 16 kts | 58° |
| 2026-05-04 22:10 | 51.12834 | -114.00616 | 3564 ft | 11 kts | 68° |
| 2026-05-04 22:10 | 51.12849 | -114.00516 | 3564 ft | 5 kts | 77° |
| 2026-05-04 22:10 | 51.12851 | -114.00500 | 3564 ft | 0 kts | 77° |